sensor_id;sensor_type;location;lat;lon;timestamp;P1;durP1;ratioP1;P2;durP2;ratioP2
13071;SDS011;6602;58.934;11.166;2022-12-07T14:23:39;6.97;;;3.03;;
13071;SDS011;6602;58.934;11.166;2022-12-07T14:28:42;5.83;;;3.43;;
13071;SDS011;6602;58.934;11.166;2022-12-07T14:33:45;4.97;;;2.30;;
13071;SDS011;6602;58.934;11.166;2022-12-07T14:39:06;4.70;;;2.83;;
13071;SDS011;6602;58.934;11.166;2022-12-07T14:44:11;4.03;;;2.70;;
13071;SDS011;6602;58.934;11.166;2022-12-07T14:49:20;5.63;;;3.53;;
13071;SDS011;6602;58.934;11.166;2022-12-07T14:54:31;2.97;;;1.97;;
13071;SDS011;6602;58.934;11.166;2022-12-07T14:59:45;6.37;;;2.63;;
13071;SDS011;6602;58.934;11.166;2022-12-07T15:04:49;6.97;;;3.60;;
13071;SDS011;6602;58.934;11.166;2022-12-07T15:09:53;15.23;;;6.77;;
13071;SDS011;6602;58.934;11.166;2022-12-07T15:14:57;6.93;;;4.07;;
13071;SDS011;6602;58.934;11.166;2022-12-07T15:19:58;6.63;;;2.80;;
13071;SDS011;6602;58.934;11.166;2022-12-07T15:24:59;6.13;;;3.20;;
13071;SDS011;6602;58.934;11.166;2022-12-07T15:30:02;7.63;;;3.93;;
13071;SDS011;6602;58.934;11.166;2022-12-07T15:35:09;4.87;;;3.20;;
13071;SDS011;6602;58.934;11.166;2022-12-07T15:40:10;8.73;;;4.73;;
13071;SDS011;6602;58.934;11.166;2022-12-07T15:45:13;13.97;;;6.77;;
13071;SDS011;6602;58.934;11.166;2022-12-07T15:50:15;19.20;;;9.67;;
13071;SDS011;6602;58.934;11.166;2022-12-07T15:55:22;9.27;;;6.30;;
13071;SDS011;6602;58.934;11.166;2022-12-07T16:00:24;10.60;;;6.20;;
13071;SDS011;6602;58.934;11.166;2022-12-07T16:05:26;18.40;;;10.70;;
13071;SDS011;6602;58.934;11.166;2022-12-07T16:10:31;28.37;;;12.40;;
13071;SDS011;6602;58.934;11.166;2022-12-07T16:15:37;11.63;;;7.33;;
13071;SDS011;6602;58.934;11.166;2022-12-07T16:20:56;14.20;;;8.63;;
13071;SDS011;6602;58.934;11.166;2022-12-07T16:26:05;9.37;;;6.10;;
13071;SDS011;6602;58.934;11.166;2022-12-07T16:31:16;11.40;;;6.50;;
13071;SDS011;6602;58.934;11.166;2022-12-07T16:36:19;10.53;;;6.87;;
13071;SDS011;6602;58.934;11.166;2022-12-07T16:41:24;13.23;;;7.33;;
13071;SDS011;6602;58.934;11.166;2022-12-07T16:46:27;14.70;;;6.53;;
13071;SDS011;6602;58.934;11.166;2022-12-07T16:51:29;9.63;;;3.63;;
13071;SDS011;6602;58.934;11.166;2022-12-07T16:56:50;3.37;;;2.40;;
13071;SDS011;6602;58.934;11.166;2022-12-07T17:01:57;5.83;;;3.67;;
13071;SDS011;6602;58.934;11.166;2022-12-07T17:07:01;10.57;;;5.87;;
13071;SDS011;6602;58.934;11.166;2022-12-07T17:12:02;14.50;;;8.13;;
13071;SDS011;6602;58.934;11.166;2022-12-07T17:17:06;21.33;;;9.63;;
13071;SDS011;6602;58.934;11.166;2022-12-07T17:22:06;36.27;;;9.07;;
13071;SDS011;6602;58.934;11.166;2022-12-07T17:27:09;8.03;;;5.20;;
13071;SDS011;6602;58.934;11.166;2022-12-07T17:32:11;11.57;;;6.30;;
13071;SDS011;6602;58.934;11.166;2022-12-07T17:37:13;6.13;;;3.60;;
13071;SDS011;6602;58.934;11.166;2022-12-07T17:42:39;11.87;;;5.27;;
13071;SDS011;6602;58.934;11.166;2022-12-07T17:47:49;18.30;;;6.23;;
13071;SDS011;6602;58.934;11.166;2022-12-07T17:52:58;8.63;;;4.10;;
13071;SDS011;6602;58.934;11.166;2022-12-07T17:58:17;5.80;;;3.37;;
13071;SDS011;6602;58.934;11.166;2022-12-07T18:03:19;3.77;;;2.73;;
13071;SDS011;6602;58.934;11.166;2022-12-07T18:08:23;6.53;;;2.93;;
13071;SDS011;6602;58.934;11.166;2022-12-07T18:13:25;7.27;;;4.27;;
13071;SDS011;6602;58.934;11.166;2022-12-07T18:18:53;19.73;;;7.67;;
13071;SDS011;6602;58.934;11.166;2022-12-07T18:23:54;13.27;;;7.50;;
13071;SDS011;6602;58.934;11.166;2022-12-07T18:28:58;17.27;;;8.53;;
13071;SDS011;6602;58.934;11.166;2022-12-07T18:34:04;14.17;;;5.83;;
13071;SDS011;6602;58.934;11.166;2022-12-07T18:39:11;7.20;;;3.40;;
13071;SDS011;6602;58.934;11.166;2022-12-07T18:44:14;11.63;;;5.70;;
13071;SDS011;6602;58.934;11.166;2022-12-07T18:49:16;12.23;;;5.77;;
13071;SDS011;6602;58.934;11.166;2022-12-07T18:54:18;13.50;;;7.57;;
13071;SDS011;6602;58.934;11.166;2022-12-07T18:59:22;19.67;;;10.37;;
13071;SDS011;6602;58.934;11.166;2022-12-07T19:04:42;18.53;;;7.77;;
13071;SDS011;6602;58.934;11.166;2022-12-07T19:09:44;12.80;;;6.23;;
13071;SDS011;6602;58.934;11.166;2022-12-07T19:14:45;13.30;;;5.33;;
13071;SDS011;6602;58.934;11.166;2022-12-07T19:19:47;13.10;;;7.03;;
13071;SDS011;6602;58.934;11.166;2022-12-07T19:24:49;12.47;;;7.40;;
13071;SDS011;6602;58.934;11.166;2022-12-07T19:29:54;16.13;;;6.33;;
13071;SDS011;6602;58.934;11.166;2022-12-07T19:39:59;13.20;;;6.77;;
13071;SDS011;6602;58.934;11.166;2022-12-07T19:45:02;13.33;;;6.80;;
13071;SDS011;6602;58.934;11.166;2022-12-07T19:50:03;15.27;;;6.80;;
13071;SDS011;6602;58.934;11.166;2022-12-07T19:55:07;14.50;;;6.40;;
13071;SDS011;6602;58.934;11.166;2022-12-07T20:00:10;10.90;;;5.87;;
13071;SDS011;6602;58.934;11.166;2022-12-07T20:05:11;12.63;;;5.77;;
13071;SDS011;6602;58.934;11.166;2022-12-07T20:10:12;20.00;;;8.27;;
13071;SDS011;6602;58.934;11.166;2022-12-07T20:15:13;17.23;;;7.70;;
13071;SDS011;6602;58.934;11.166;2022-12-07T20:20:15;18.03;;;8.20;;
13071;SDS011;6602;58.934;11.166;2022-12-07T20:25:16;11.43;;;6.93;;
13071;SDS011;6602;58.934;11.166;2022-12-07T20:30:19;13.50;;;5.87;;
13071;SDS011;6602;58.934;11.166;2022-12-07T20:35:19;14.77;;;7.23;;
13071;SDS011;6602;58.934;11.166;2022-12-07T20:40:21;10.43;;;5.97;;
13071;SDS011;6602;58.934;11.166;2022-12-07T20:45:22;14.17;;;7.27;;
13071;SDS011;6602;58.934;11.166;2022-12-07T20:50:23;16.23;;;8.23;;
13071;SDS011;6602;58.934;11.166;2022-12-07T20:55:26;11.87;;;7.13;;
13071;SDS011;6602;58.934;11.166;2022-12-07T21:00:28;14.73;;;8.00;;
13071;SDS011;6602;58.934;11.166;2022-12-07T21:05:32;16.60;;;6.87;;
13071;SDS011;6602;58.934;11.166;2022-12-07T21:10:37;9.03;;;4.90;;
13071;SDS011;6602;58.934;11.166;2022-12-07T21:15:38;11.50;;;4.33;;
13071;SDS011;6602;58.934;11.166;2022-12-07T21:20:40;10.07;;;4.50;;
13071;SDS011;6602;58.934;11.166;2022-12-07T21:25:41;7.13;;;3.73;;
13071;SDS011;6602;58.934;11.166;2022-12-07T21:30:42;12.37;;;5.17;;
13071;SDS011;6602;58.934;11.166;2022-12-07T21:35:47;6.90;;;4.43;;
13071;SDS011;6602;58.934;11.166;2022-12-07T21:40:48;6.60;;;4.20;;
13071;SDS011;6602;58.934;11.166;2022-12-07T21:45:52;4.83;;;3.40;;
13071;SDS011;6602;58.934;11.166;2022-12-07T21:51:02;6.37;;;3.40;;
13071;SDS011;6602;58.934;11.166;2022-12-07T21:56:15;5.80;;;3.10;;
13071;SDS011;6602;58.934;11.166;2022-12-07T22:01:22;5.90;;;3.43;;
13071;SDS011;6602;58.934;11.166;2022-12-07T22:06:27;4.30;;;2.77;;
13071;SDS011;6602;58.934;11.166;2022-12-07T22:11:30;6.40;;;3.00;;
13071;SDS011;6602;58.934;11.166;2022-12-07T22:16:38;5.67;;;3.17;;
13071;SDS011;6602;58.934;11.166;2022-12-07T22:21:40;5.63;;;2.97;;
13071;SDS011;6602;58.934;11.166;2022-12-07T22:26:41;6.33;;;3.47;;
13071;SDS011;6602;58.934;11.166;2022-12-07T22:31:43;4.17;;;3.57;;
13071;SDS011;6602;58.934;11.166;2022-12-07T22:36:46;4.67;;;2.60;;
13071;SDS011;6602;58.934;11.166;2022-12-07T22:41:47;3.97;;;2.70;;
13071;SDS011;6602;58.934;11.166;2022-12-07T22:46:49;5.37;;;2.57;;
13071;SDS011;6602;58.934;11.166;2022-12-07T22:51:54;3.47;;;2.33;;
13071;SDS011;6602;58.934;11.166;2022-12-07T22:56:56;3.63;;;2.13;;
13071;SDS011;6602;58.934;11.166;2022-12-07T23:01:59;5.27;;;3.07;;
13071;SDS011;6602;58.934;11.166;2022-12-07T23:07:00;4.83;;;2.80;;
13071;SDS011;6602;58.934;11.166;2022-12-07T23:12:00;5.03;;;2.07;;
13071;SDS011;6602;58.934;11.166;2022-12-07T23:17:20;2.97;;;2.17;;
13071;SDS011;6602;58.934;11.166;2022-12-07T23:22:21;2.97;;;1.73;;
13071;SDS011;6602;58.934;11.166;2022-12-07T23:27:21;4.80;;;2.60;;
13071;SDS011;6602;58.934;11.166;2022-12-07T23:32:22;4.77;;;2.37;;
13071;SDS011;6602;58.934;11.166;2022-12-07T23:37:30;2.90;;;2.00;;
13071;SDS011;6602;58.934;11.166;2022-12-07T23:42:31;8.20;;;3.20;;
13071;SDS011;6602;58.934;11.166;2022-12-07T23:47:32;2.80;;;1.63;;
13071;SDS011;6602;58.934;11.166;2022-12-07T23:52:33;5.63;;;2.47;;
13071;SDS011;6602;58.934;11.166;2022-12-07T23:57:34;2.90;;;2.00;;
